sensor_id;sensor_type;location;lat;lon;timestamp;temperature;humidity
1686;DHT22;840;47.980;7.830;2024-01-27T00:00:16;7.20;99.90
1686;DHT22;840;47.980;7.830;2024-01-27T00:02:45;7.20;99.90
1686;DHT22;840;47.980;7.830;2024-01-27T00:05:11;7.10;99.90
1686;DHT22;840;47.980;7.830;2024-01-27T00:07:38;7.10;99.90
1686;DHT22;840;47.980;7.830;2024-01-27T00:10:06;7.10;99.90
1686;DHT22;840;47.980;7.830;2024-01-27T00:12:33;7.00;99.90
1686;DHT22;840;47.980;7.830;2024-01-27T00:15:00;7.00;99.90
1686;DHT22;840;47.980;7.830;2024-01-27T00:17:27;7.00;99.90
1686;DHT22;840;47.980;7.830;2024-01-27T00:19:55;6.90;99.90
1686;DHT22;840;47.980;7.830;2024-01-27T00:22:21;6.90;99.90
1686;DHT22;840;47.980;7.830;2024-01-27T00:24:48;6.90;99.90
1686;DHT22;840;47.980;7.830;2024-01-27T00:27:15;6.80;99.90
1686;DHT22;840;47.980;7.830;2024-01-27T00:29:42;6.80;99.90
1686;DHT22;840;47.980;7.830;2024-01-27T00:32:08;6.70;99.90
1686;DHT22;840;47.980;7.830;2024-01-27T00:34:35;6.70;99.90
1686;DHT22;840;47.980;7.830;2024-01-27T00:37:03;6.60;99.90
1686;DHT22;840;47.980;7.830;2024-01-27T00:39:31;6.50;99.90
1686;DHT22;840;47.980;7.830;2024-01-27T00:41:58;6.50;99.90
1686;DHT22;840;47.980;7.830;2024-01-27T00:44:24;6.50;99.90
1686;DHT22;840;47.980;7.830;2024-01-27T00:46:51;6.50;99.90
1686;DHT22;840;47.980;7.830;2024-01-27T00:49:18;6.40;99.90
1686;DHT22;840;47.980;7.830;2024-01-27T00:51:45;6.40;99.90
1686;DHT22;840;47.980;7.830;2024-01-27T00:54:13;6.40;99.90
1686;DHT22;840;47.980;7.830;2024-01-27T00:56:40;6.40;99.90
1686;DHT22;840;47.980;7.830;2024-01-27T00:59:07;6.30;99.90
1686;DHT22;840;47.980;7.830;2024-01-27T01:01:34;6.30;99.90
1686;DHT22;840;47.980;7.830;2024-01-27T01:04:00;6.30;99.90
1686;DHT22;840;47.980;7.830;2024-01-27T01:06:27;6.20;99.90
1686;DHT22;840;47.980;7.830;2024-01-27T01:08:54;6.20;99.90
1686;DHT22;840;47.980;7.830;2024-01-27T01:11:22;6.10;99.90
1686;DHT22;840;47.980;7.830;2024-01-27T01:13:49;6.20;99.90
1686;DHT22;840;47.980;7.830;2024-01-27T01:16:16;6.20;99.90
1686;DHT22;840;47.980;7.830;2024-01-27T01:18:43;6.10;99.90
1686;DHT22;840;47.980;7.830;2024-01-27T01:21:09;6.10;99.90
1686;DHT22;840;47.980;7.830;2024-01-27T01:23:36;6.10;99.90
1686;DHT22;840;47.980;7.830;2024-01-27T01:26:03;6.00;99.90
1686;DHT22;840;47.980;7.830;2024-01-27T01:28:31;6.00;99.90
1686;DHT22;840;47.980;7.830;2024-01-27T01:30:58;6.00;99.90
1686;DHT22;840;47.980;7.830;2024-01-27T01:33:24;6.00;99.90
1686;DHT22;840;47.980;7.830;2024-01-27T01:35:51;5.90;99.90
1686;DHT22;840;47.980;7.830;2024-01-27T01:38:19;5.80;99.90
1686;DHT22;840;47.980;7.830;2024-01-27T01:40:45;5.80;99.90
1686;DHT22;840;47.980;7.830;2024-01-27T01:43:12;5.70;99.90
1686;DHT22;840;47.980;7.830;2024-01-27T01:45:40;5.70;99.90
1686;DHT22;840;47.980;7.830;2024-01-27T01:48:07;5.70;99.90
1686;DHT22;840;47.980;7.830;2024-01-27T01:50:34;5.70;99.90
1686;DHT22;840;47.980;7.830;2024-01-27T01:53:01;5.60;99.90
1686;DHT22;840;47.980;7.830;2024-01-27T01:55:28;5.60;99.90
1686;DHT22;840;47.980;7.830;2024-01-27T01:57:55;5.60;99.90
1686;DHT22;840;47.980;7.830;2024-01-27T02:00:22;5.60;99.90
1686;DHT22;840;47.980;7.830;2024-01-27T02:02:50;5.50;99.90
1686;DHT22;840;47.980;7.830;2024-01-27T02:05:16;5.50;99.90
1686;DHT22;840;47.980;7.830;2024-01-27T02:07:43;5.50;99.90
1686;DHT22;840;47.980;7.830;2024-01-27T02:10:14;5.40;99.90
1686;DHT22;840;47.980;7.830;2024-01-27T02:12:41;5.40;99.90
1686;DHT22;840;47.980;7.830;2024-01-27T02:15:10;5.40;99.90
1686;DHT22;840;47.980;7.830;2024-01-27T02:17:38;5.30;99.90
1686;DHT22;840;47.980;7.830;2024-01-27T02:20:07;5.30;99.90
1686;DHT22;840;47.980;7.830;2024-01-27T02:22:34;5.30;99.90
1686;DHT22;840;47.980;7.830;2024-01-27T02:25:03;5.30;99.90
1686;DHT22;840;47.980;7.830;2024-01-27T02:27:30;5.30;99.90
1686;DHT22;840;47.980;7.830;2024-01-27T02:29:56;5.20;99.90
1686;DHT22;840;47.980;7.830;2024-01-27T02:32:23;5.20;99.90
1686;DHT22;840;47.980;7.830;2024-01-27T02:34:50;5.20;99.90
1686;DHT22;840;47.980;7.830;2024-01-27T02:37:17;5.10;99.90
1686;DHT22;840;47.980;7.830;2024-01-27T02:39:44;5.10;99.90
1686;DHT22;840;47.980;7.830;2024-01-27T02:42:12;5.10;99.90
1686;DHT22;840;47.980;7.830;2024-01-27T02:44:39;5.10;99.90
1686;DHT22;840;47.980;7.830;2024-01-27T02:47:05;5.10;99.90
1686;DHT22;840;47.980;7.830;2024-01-27T02:49:33;5.10;99.90
1686;DHT22;840;47.980;7.830;2024-01-27T02:51:59;5.00;99.90
1686;DHT22;840;47.980;7.830;2024-01-27T02:54:26;5.00;99.90
1686;DHT22;840;47.980;7.830;2024-01-27T02:56:53;5.00;99.90
1686;DHT22;840;47.980;7.830;2024-01-27T02:59:21;5.00;99.90
1686;DHT22;840;47.980;7.830;2024-01-27T03:01:47;4.90;99.90
1686;DHT22;840;47.980;7.830;2024-01-27T03:04:14;4.90;99.90
1686;DHT22;840;47.980;7.830;2024-01-27T03:06:41;4.90;99.90
1686;DHT22;840;47.980;7.830;2024-01-27T03:09:07;4.90;99.90
1686;DHT22;840;47.980;7.830;2024-01-27T03:11:36;4.80;99.90
1686;DHT22;840;47.980;7.830;2024-01-27T03:14:02;4.80;99.90
1686;DHT22;840;47.980;7.830;2024-01-27T03:16:31;4.80;99.90
1686;DHT22;840;47.980;7.830;2024-01-27T03:18:58;4.70;99.90
1686;DHT22;840;47.980;7.830;2024-01-27T03:21:25;4.70;99.90
1686;DHT22;840;47.980;7.830;2024-01-27T03:23:51;4.70;99.90
1686;DHT22;840;47.980;7.830;2024-01-27T03:26:18;4.60;99.90
1686;DHT22;840;47.980;7.830;2024-01-27T03:28:45;4.60;99.90
1686;DHT22;840;47.980;7.830;2024-01-27T03:31:12;4.50;99.90
1686;DHT22;840;47.980;7.830;2024-01-27T03:33:40;4.50;99.90
1686;DHT22;840;47.980;7.830;2024-01-27T03:36:09;4.50;99.90
1686;DHT22;840;47.980;7.830;2024-01-27T03:38:36;4.50;99.90
1686;DHT22;840;47.980;7.830;2024-01-27T03:41:03;4.40;99.90
1686;DHT22;840;47.980;7.830;2024-01-27T03:43:30;4.40;99.90
1686;DHT22;840;47.980;7.830;2024-01-27T03:45:57;4.40;99.90
1686;DHT22;840;47.980;7.830;2024-01-27T03:48:24;4.40;99.90
1686;DHT22;840;47.980;7.830;2024-01-27T03:50:53;4.40;99.90
1686;DHT22;840;47.980;7.830;2024-01-27T03:53:19;4.40;99.90
1686;DHT22;840;47.980;7.830;2024-01-27T03:55:46;4.40;99.90
1686;DHT22;840;47.980;7.830;2024-01-27T03:58:13;4.30;99.90
1686;DHT22;840;47.980;7.830;2024-01-27T04:00:39;4.30;99.90
1686;DHT22;840;47.980;7.830;2024-01-27T04:03:06;4.30;99.90
1686;DHT22;840;47.980;7.830;2024-01-27T04:05:35;4.20;99.90
1686;DHT22;840;47.980;7.830;2024-01-27T04:08:04;4.20;99.90
1686;DHT22;840;47.980;7.830;2024-01-27T04:10:31;4.20;99.90
1686;DHT22;840;47.980;7.830;2024-01-27T04:12:57;4.20;99.90
1686;DHT22;840;47.980;7.830;2024-01-27T04:15:24;4.20;99.90
1686;DHT22;840;47.980;7.830;2024-01-27T04:17:51;4.20;99.90
1686;DHT22;840;47.980;7.830;2024-01-27T04:20:17;4.20;99.90
1686;DHT22;840;47.980;7.830;2024-01-27T04:22:44;4.20;99.90
1686;DHT22;840;47.980;7.830;2024-01-27T04:25:12;4.10;99.90
1686;DHT22;840;47.980;7.830;2024-01-27T04:27:40;4.10;99.90
1686;DHT22;840;47.980;7.830;2024-01-27T04:30:08;4.10;99.90
1686;DHT22;840;47.980;7.830;2024-01-27T04:32:35;4.10;99.90
1686;DHT22;840;47.980;7.830;2024-01-27T04:35:03;4.00;99.90
1686;DHT22;840;47.980;7.830;2024-01-27T04:37:29;4.00;99.90
1686;DHT22;840;47.980;7.830;2024-01-27T04:39:56;4.00;99.90
1686;DHT22;840;47.980;7.830;2024-01-27T04:42:24;4.00;99.90
1686;DHT22;840;47.980;7.830;2024-01-27T04:44:51;4.00;99.90
1686;DHT22;840;47.980;7.830;2024-01-27T04:47:17;3.90;99.90
1686;DHT22;840;47.980;7.830;2024-01-27T04:49:44;3.90;99.90
1686;DHT22;840;47.980;7.830;2024-01-27T04:52:11;3.90;99.90
1686;DHT22;840;47.980;7.830;2024-01-27T04:54:38;3.90;99.90
1686;DHT22;840;47.980;7.830;2024-01-27T04:57:04;3.90;99.90
1686;DHT22;840;47.980;7.830;2024-01-27T04:59:33;3.80;99.90
1686;DHT22;840;47.980;7.830;2024-01-27T05:02:00;3.80;99.90
1686;DHT22;840;47.980;7.830;2024-01-27T05:04:26;3.80;99.90
1686;DHT22;840;47.980;7.830;2024-01-27T05:06:53;3.80;99.90
1686;DHT22;840;47.980;7.830;2024-01-27T05:09:20;3.80;99.90
1686;DHT22;840;47.980;7.830;2024-01-27T05:11:46;3.80;99.90
1686;DHT22;840;47.980;7.830;2024-01-27T05:14:14;3.70;99.90
1686;DHT22;840;47.980;7.830;2024-01-27T05:16:42;3.70;99.90
1686;DHT22;840;47.980;7.830;2024-01-27T05:19:10;3.70;99.90
1686;DHT22;840;47.980;7.830;2024-01-27T05:21:37;3.70;99.90
1686;DHT22;840;47.980;7.830;2024-01-27T05:24:05;3.60;99.90
1686;DHT22;840;47.980;7.830;2024-01-27T05:26:31;3.60;99.90
1686;DHT22;840;47.980;7.830;2024-01-27T05:28:58;3.60;99.90
1686;DHT22;840;47.980;7.830;2024-01-27T05:31:25;3.50;99.90
1686;DHT22;840;47.980;7.830;2024-01-27T05:33:53;3.50;99.90
1686;DHT22;840;47.980;7.830;2024-01-27T05:36:20;3.40;99.90
1686;DHT22;840;47.980;7.830;2024-01-27T05:38:47;3.40;99.90
1686;DHT22;840;47.980;7.830;2024-01-27T05:41:14;3.40;99.90
1686;DHT22;840;47.980;7.830;2024-01-27T05:43:40;3.40;99.90
1686;DHT22;840;47.980;7.830;2024-01-27T05:46:08;3.40;99.90
1686;DHT22;840;47.980;7.830;2024-01-27T05:48:35;3.40;99.90
1686;DHT22;840;47.980;7.830;2024-01-27T05:51:03;3.40;99.90
1686;DHT22;840;47.980;7.830;2024-01-27T05:53:30;3.30;99.90
1686;DHT22;840;47.980;7.830;2024-01-27T05:55:57;3.30;99.90
1686;DHT22;840;47.980;7.830;2024-01-27T05:58:23;3.30;99.90
1686;DHT22;840;47.980;7.830;2024-01-27T06:00:50;3.30;99.90
1686;DHT22;840;47.980;7.830;2024-01-27T06:03:17;3.30;99.90
1686;DHT22;840;47.980;7.830;2024-01-27T06:05:44;3.30;99.90
1686;DHT22;840;47.980;7.830;2024-01-27T06:08:12;3.20;99.90
1686;DHT22;840;47.980;7.830;2024-01-27T06:10:39;3.20;99.90
1686;DHT22;840;47.980;7.830;2024-01-27T06:13:06;3.20;99.90
1686;DHT22;840;47.980;7.830;2024-01-27T06:15:33;3.20;99.90
1686;DHT22;840;47.980;7.830;2024-01-27T06:17:59;3.20;99.90
1686;DHT22;840;47.980;7.830;2024-01-27T06:20:26;3.20;99.90
1686;DHT22;840;47.980;7.830;2024-01-27T06:22:53;3.20;99.90
1686;DHT22;840;47.980;7.830;2024-01-27T06:25:21;3.20;99.90
1686;DHT22;840;47.980;7.830;2024-01-27T06:27:48;3.20;99.90
1686;DHT22;840;47.980;7.830;2024-01-27T06:30:15;3.20;99.90
1686;DHT22;840;47.980;7.830;2024-01-27T06:32:42;3.20;99.90
1686;DHT22;840;47.980;7.830;2024-01-27T06:35:09;3.10;99.90
1686;DHT22;840;47.980;7.830;2024-01-27T06:37:36;3.10;99.90
1686;DHT22;840;47.980;7.830;2024-01-27T06:40:03;3.10;99.90
1686;DHT22;840;47.980;7.830;2024-01-27T06:42:31;3.10;99.90
1686;DHT22;840;47.980;7.830;2024-01-27T06:44:58;3.10;99.90
1686;DHT22;840;47.980;7.830;2024-01-27T06:47:24;3.10;99.90
1686;DHT22;840;47.980;7.830;2024-01-27T06:49:51;3.00;99.90
1686;DHT22;840;47.980;7.830;2024-01-27T06:52:18;3.00;99.90
1686;DHT22;840;47.980;7.830;2024-01-27T06:54:45;3.00;99.90
1686;DHT22;840;47.980;7.830;2024-01-27T06:57:18;3.00;99.90
1686;DHT22;840;47.980;7.830;2024-01-27T06:59:47;3.00;99.90
1686;DHT22;840;47.980;7.830;2024-01-27T07:02:18;3.00;99.90
1686;DHT22;840;47.980;7.830;2024-01-27T07:04:44;3.10;99.90
1686;DHT22;840;47.980;7.830;2024-01-27T07:07:12;3.10;99.90
1686;DHT22;840;47.980;7.830;2024-01-27T07:09:38;3.10;99.90
1686;DHT22;840;47.980;7.830;2024-01-27T07:12:06;3.10;99.90
1686;DHT22;840;47.980;7.830;2024-01-27T07:14:34;3.10;99.90
1686;DHT22;840;47.980;7.830;2024-01-27T07:17:03;3.10;99.90
1686;DHT22;840;47.980;7.830;2024-01-27T07:19:30;3.10;99.90
1686;DHT22;840;47.980;7.830;2024-01-27T07:21:56;3.10;99.90
1686;DHT22;840;47.980;7.830;2024-01-27T07:24:23;3.10;99.90
1686;DHT22;840;47.980;7.830;2024-01-27T07:26:50;3.10;99.90
1686;DHT22;840;47.980;7.830;2024-01-27T07:29:17;3.10;99.90
1686;DHT22;840;47.980;7.830;2024-01-27T07:31:44;3.10;99.90
1686;DHT22;840;47.980;7.830;2024-01-27T07:34:12;3.10;99.90
1686;DHT22;840;47.980;7.830;2024-01-27T07:36:38;3.10;99.90
1686;DHT22;840;47.980;7.830;2024-01-27T07:39:05;3.00;99.90
1686;DHT22;840;47.980;7.830;2024-01-27T07:41:32;3.10;99.90
1686;DHT22;840;47.980;7.830;2024-01-27T07:44:07;3.00;99.90
1686;DHT22;840;47.980;7.830;2024-01-27T07:46:34;3.00;99.90
1686;DHT22;840;47.980;7.830;2024-01-27T07:49:01;3.00;99.90
1686;DHT22;840;47.980;7.830;2024-01-27T07:51:29;3.00;99.90
1686;DHT22;840;47.980;7.830;2024-01-27T07:53:56;3.00;99.90
1686;DHT22;840;47.980;7.830;2024-01-27T07:56:23;3.00;99.90
1686;DHT22;840;47.980;7.830;2024-01-27T07:58:50;3.00;99.90
1686;DHT22;840;47.980;7.830;2024-01-27T08:01:17;3.10;99.90
1686;DHT22;840;47.980;7.830;2024-01-27T08:03:44;3.10;99.90
1686;DHT22;840;47.980;7.830;2024-01-27T08:06:16;3.10;99.90
1686;DHT22;840;47.980;7.830;2024-01-27T08:08:45;3.10;99.90
1686;DHT22;840;47.980;7.830;2024-01-27T08:11:12;3.10;99.90
1686;DHT22;840;47.980;7.830;2024-01-27T08:13:40;3.10;99.90
1686;DHT22;840;47.980;7.830;2024-01-27T08:16:07;3.10;99.90
1686;DHT22;840;47.980;7.830;2024-01-27T08:18:35;3.10;99.90
1686;DHT22;840;47.980;7.830;2024-01-27T08:21:02;3.20;99.90
1686;DHT22;840;47.980;7.830;2024-01-27T08:23:29;3.20;99.90
1686;DHT22;840;47.980;7.830;2024-01-27T08:25:57;3.20;99.90
1686;DHT22;840;47.980;7.830;2024-01-27T08:28:24;3.20;99.90
1686;DHT22;840;47.980;7.830;2024-01-27T08:30:51;3.20;99.90
1686;DHT22;840;47.980;7.830;2024-01-27T08:33:17;3.20;99.90
1686;DHT22;840;47.980;7.830;2024-01-27T08:35:46;3.30;99.90
1686;DHT22;840;47.980;7.830;2024-01-27T08:38:13;3.30;99.90
1686;DHT22;840;47.980;7.830;2024-01-27T08:40:40;3.30;99.90
1686;DHT22;840;47.980;7.830;2024-01-27T08:43:08;3.40;99.90
1686;DHT22;840;47.980;7.830;2024-01-27T08:45:36;3.40;99.90
1686;DHT22;840;47.980;7.830;2024-01-27T08:48:03;3.50;99.90
1686;DHT22;840;47.980;7.830;2024-01-27T08:50:30;3.50;99.90
1686;DHT22;840;47.980;7.830;2024-01-27T08:52:57;3.40;99.90
1686;DHT22;840;47.980;7.830;2024-01-27T08:55:24;3.50;99.90
1686;DHT22;840;47.980;7.830;2024-01-27T08:57:50;3.50;99.90
1686;DHT22;840;47.980;7.830;2024-01-27T09:00:19;3.60;99.90
1686;DHT22;840;47.980;7.830;2024-01-27T09:02:46;3.60;99.90
1686;DHT22;840;47.980;7.830;2024-01-27T09:05:13;3.70;99.90
1686;DHT22;840;47.980;7.830;2024-01-27T09:07:39;3.80;99.90
1686;DHT22;840;47.980;7.830;2024-01-27T09:10:07;3.90;99.90
1686;DHT22;840;47.980;7.830;2024-01-27T09:12:35;3.90;99.90
1686;DHT22;840;47.980;7.830;2024-01-27T09:15:02;4.00;99.90
1686;DHT22;840;47.980;7.830;2024-01-27T09:17:30;4.00;99.90
1686;DHT22;840;47.980;7.830;2024-01-27T09:19:56;4.10;99.90
1686;DHT22;840;47.980;7.830;2024-01-27T09:22:23;4.10;99.90
1686;DHT22;840;47.980;7.830;2024-01-27T09:24:51;4.10;99.90
1686;DHT22;840;47.980;7.830;2024-01-27T09:27:18;4.20;99.90
1686;DHT22;840;47.980;7.830;2024-01-27T09:29:45;4.20;99.90
1686;DHT22;840;47.980;7.830;2024-01-27T09:32:12;4.30;99.90
1686;DHT22;840;47.980;7.830;2024-01-27T09:34:40;4.30;99.90
1686;DHT22;840;47.980;7.830;2024-01-27T09:37:07;4.30;99.90
1686;DHT22;840;47.980;7.830;2024-01-27T09:39:33;4.40;99.90
1686;DHT22;840;47.980;7.830;2024-01-27T09:42:04;4.50;99.90
1686;DHT22;840;47.980;7.830;2024-01-27T09:44:33;4.60;99.90
1686;DHT22;840;47.980;7.830;2024-01-27T09:47:01;4.60;99.90
1686;DHT22;840;47.980;7.830;2024-01-27T09:49:31;4.70;99.90
1686;DHT22;840;47.980;7.830;2024-01-27T09:51:59;4.70;99.90
1686;DHT22;840;47.980;7.830;2024-01-27T09:54:26;4.70;99.90
1686;DHT22;840;47.980;7.830;2024-01-27T09:56:53;4.60;99.90
1686;DHT22;840;47.980;7.830;2024-01-27T09:59:20;4.70;99.90
1686;DHT22;840;47.980;7.830;2024-01-27T10:01:48;4.70;99.90
1686;DHT22;840;47.980;7.830;2024-01-27T10:04:17;4.70;99.90
1686;DHT22;840;47.980;7.830;2024-01-27T10:06:45;4.70;99.90
1686;DHT22;840;47.980;7.830;2024-01-27T10:09:14;4.80;99.90
1686;DHT22;840;47.980;7.830;2024-01-27T10:11:45;4.80;99.90
1686;DHT22;840;47.980;7.830;2024-01-27T10:14:12;4.80;99.90
1686;DHT22;840;47.980;7.830;2024-01-27T10:16:42;4.90;99.90
1686;DHT22;840;47.980;7.830;2024-01-27T10:19:14;4.90;99.90
1686;DHT22;840;47.980;7.830;2024-01-27T10:21:41;4.90;99.90
1686;DHT22;840;47.980;7.830;2024-01-27T10:24:08;5.00;99.90
1686;DHT22;840;47.980;7.830;2024-01-27T10:26:36;5.00;99.90
1686;DHT22;840;47.980;7.830;2024-01-27T10:29:03;5.00;99.90
1686;DHT22;840;47.980;7.830;2024-01-27T10:31:31;5.10;99.90
1686;DHT22;840;47.980;7.830;2024-01-27T10:33:58;5.20;99.90
1686;DHT22;840;47.980;7.830;2024-01-27T10:36:37;5.20;99.90
1686;DHT22;840;47.980;7.830;2024-01-27T10:39:16;5.30;99.90
1686;DHT22;840;47.980;7.830;2024-01-27T10:41:45;5.40;99.90
1686;DHT22;840;47.980;7.830;2024-01-27T10:44:14;5.50;99.90
1686;DHT22;840;47.980;7.830;2024-01-27T10:46:43;5.50;99.90
1686;DHT22;840;47.980;7.830;2024-01-27T10:49:12;5.60;99.90
1686;DHT22;840;47.980;7.830;2024-01-27T10:51:43;5.60;99.90
1686;DHT22;840;47.980;7.830;2024-01-27T10:54:14;5.70;99.90
1686;DHT22;840;47.980;7.830;2024-01-27T10:56:42;5.80;99.90
1686;DHT22;840;47.980;7.830;2024-01-27T10:59:11;5.90;99.90
1686;DHT22;840;47.980;7.830;2024-01-27T11:01:41;6.00;99.90
1686;DHT22;840;47.980;7.830;2024-01-27T11:04:10;6.00;99.90
1686;DHT22;840;47.980;7.830;2024-01-27T11:06:39;6.00;99.90
1686;DHT22;840;47.980;7.830;2024-01-27T11:09:08;6.00;99.90
1686;DHT22;840;47.980;7.830;2024-01-27T11:11:36;6.00;99.90
1686;DHT22;840;47.980;7.830;2024-01-27T11:14:04;6.00;99.90
1686;DHT22;840;47.980;7.830;2024-01-27T11:16:32;6.10;99.90
1686;DHT22;840;47.980;7.830;2024-01-27T11:18:59;6.10;99.90
1686;DHT22;840;47.980;7.830;2024-01-27T11:21:25;6.10;99.90
1686;DHT22;840;47.980;7.830;2024-01-27T11:23:52;6.00;99.90
1686;DHT22;840;47.980;7.830;2024-01-27T11:26:21;6.00;99.90
1686;DHT22;840;47.980;7.830;2024-01-27T11:28:48;6.00;99.90
1686;DHT22;840;47.980;7.830;2024-01-27T11:31:17;6.00;99.90
1686;DHT22;840;47.980;7.830;2024-01-27T11:33:47;6.00;99.90
1686;DHT22;840;47.980;7.830;2024-01-27T11:36:19;6.10;99.90
1686;DHT22;840;47.980;7.830;2024-01-27T11:38:47;6.10;99.90
1686;DHT22;840;47.980;7.830;2024-01-27T11:41:23;6.20;99.90
1686;DHT22;840;47.980;7.830;2024-01-27T11:43:54;6.20;99.90
1686;DHT22;840;47.980;7.830;2024-01-27T11:46:21;6.30;99.90
1686;DHT22;840;47.980;7.830;2024-01-27T11:48:49;6.30;99.90
1686;DHT22;840;47.980;7.830;2024-01-27T11:51:17;6.40;99.90
1686;DHT22;840;47.980;7.830;2024-01-27T11:53:45;6.40;99.90
1686;DHT22;840;47.980;7.830;2024-01-27T11:56:12;6.40;99.90
1686;DHT22;840;47.980;7.830;2024-01-27T11:58:46;6.50;99.90
1686;DHT22;840;47.980;7.830;2024-01-27T12:01:13;6.50;99.90
1686;DHT22;840;47.980;7.830;2024-01-27T12:03:40;6.50;99.90
1686;DHT22;840;47.980;7.830;2024-01-27T12:06:07;6.50;99.90
1686;DHT22;840;47.980;7.830;2024-01-27T12:08:35;6.60;99.90
1686;DHT22;840;47.980;7.830;2024-01-27T12:11:02;6.60;99.90
1686;DHT22;840;47.980;7.830;2024-01-27T12:13:29;6.60;99.90
1686;DHT22;840;47.980;7.830;2024-01-27T12:15:56;6.70;99.90
1686;DHT22;840;47.980;7.830;2024-01-27T12:18:23;6.70;99.90
1686;DHT22;840;47.980;7.830;2024-01-27T12:20:55;6.80;99.90
1686;DHT22;840;47.980;7.830;2024-01-27T12:23:23;6.80;99.90
1686;DHT22;840;47.980;7.830;2024-01-27T12:25:53;6.80;99.90
1686;DHT22;840;47.980;7.830;2024-01-27T12:28:22;6.90;99.90
1686;DHT22;840;47.980;7.830;2024-01-27T12:30:52;6.90;99.90
1686;DHT22;840;47.980;7.830;2024-01-27T12:33:19;6.90;99.90
1686;DHT22;840;47.980;7.830;2024-01-27T12:35:50;7.00;99.90
1686;DHT22;840;47.980;7.830;2024-01-27T12:38:17;7.00;99.90
1686;DHT22;840;47.980;7.830;2024-01-27T12:40:45;7.10;99.90
1686;DHT22;840;47.980;7.830;2024-01-27T12:43:12;7.10;99.90
1686;DHT22;840;47.980;7.830;2024-01-27T12:45:40;7.10;99.90
1686;DHT22;840;47.980;7.830;2024-01-27T12:48:07;7.20;99.90
1686;DHT22;840;47.980;7.830;2024-01-27T12:50:33;7.20;99.90
1686;DHT22;840;47.980;7.830;2024-01-27T12:53:00;7.20;99.90
1686;DHT22;840;47.980;7.830;2024-01-27T12:55:26;7.30;99.90
1686;DHT22;840;47.980;7.830;2024-01-27T12:57:55;7.30;99.90
1686;DHT22;840;47.980;7.830;2024-01-27T13:00:23;7.30;99.90
1686;DHT22;840;47.980;7.830;2024-01-27T13:02:49;7.40;99.90
1686;DHT22;840;47.980;7.830;2024-01-27T13:05:16;7.40;99.90
1686;DHT22;840;47.980;7.830;2024-01-27T13:07:43;7.50;99.90
1686;DHT22;840;47.980;7.830;2024-01-27T13:10:10;7.50;99.90
1686;DHT22;840;47.980;7.830;2024-01-27T13:12:37;7.50;99.90
1686;DHT22;840;47.980;7.830;2024-01-27T13:15:05;7.50;99.90
1686;DHT22;840;47.980;7.830;2024-01-27T13:17:32;7.50;99.90
1686;DHT22;840;47.980;7.830;2024-01-27T13:19:59;7.50;99.90
1686;DHT22;840;47.980;7.830;2024-01-27T13:22:25;7.60;99.90
1686;DHT22;840;47.980;7.830;2024-01-27T13:24:52;7.60;99.90
1686;DHT22;840;47.980;7.830;2024-01-27T13:27:20;7.60;99.90
1686;DHT22;840;47.980;7.830;2024-01-27T13:29:46;7.60;99.90
1686;DHT22;840;47.980;7.830;2024-01-27T13:32:15;7.60;99.90
1686;DHT22;840;47.980;7.830;2024-01-27T13:34:41;7.60;99.90
1686;DHT22;840;47.980;7.830;2024-01-27T13:37:08;7.70;99.90
1686;DHT22;840;47.980;7.830;2024-01-27T13:39:35;7.70;99.90
1686;DHT22;840;47.980;7.830;2024-01-27T13:42:03;7.80;99.90
1686;DHT22;840;47.980;7.830;2024-01-27T13:44:30;7.80;99.90
1686;DHT22;840;47.980;7.830;2024-01-27T13:47:00;7.80;99.90
1686;DHT22;840;47.980;7.830;2024-01-27T13:49:28;7.80;99.90
1686;DHT22;840;47.980;7.830;2024-01-27T13:51:55;7.80;99.90
1686;DHT22;840;47.980;7.830;2024-01-27T13:54:22;7.80;99.90
1686;DHT22;840;47.980;7.830;2024-01-27T13:56:49;7.90;99.90
1686;DHT22;840;47.980;7.830;2024-01-27T13:59:15;7.90;99.90
1686;DHT22;840;47.980;7.830;2024-01-27T14:01:42;8.00;99.90
1686;DHT22;840;47.980;7.830;2024-01-27T14:04:10;7.90;99.90
1686;DHT22;840;47.980;7.830;2024-01-27T14:06:38;8.00;99.90
1686;DHT22;840;47.980;7.830;2024-01-27T14:09:05;8.00;99.90
1686;DHT22;840;47.980;7.830;2024-01-27T14:11:32;8.10;99.90
1686;DHT22;840;47.980;7.830;2024-01-27T14:13:59;8.10;99.90
1686;DHT22;840;47.980;7.830;2024-01-27T14:16:33;8.10;99.90
1686;DHT22;840;47.980;7.830;2024-01-27T14:18:59;8.20;99.90
1686;DHT22;840;47.980;7.830;2024-01-27T14:21:26;8.30;99.90
1686;DHT22;840;47.980;7.830;2024-01-27T14:23:55;8.40;99.90
1686;DHT22;840;47.980;7.830;2024-01-27T14:26:26;8.60;99.90
1686;DHT22;840;47.980;7.830;2024-01-27T14:28:53;8.70;99.90
1686;DHT22;840;47.980;7.830;2024-01-27T14:31:20;8.80;99.90
1686;DHT22;840;47.980;7.830;2024-01-27T14:33:47;8.90;99.90
1686;DHT22;840;47.980;7.830;2024-01-27T14:36:14;9.10;99.90
1686;DHT22;840;47.980;7.830;2024-01-27T14:38:41;9.20;99.90
1686;DHT22;840;47.980;7.830;2024-01-27T14:41:10;9.20;99.90
1686;DHT22;840;47.980;7.830;2024-01-27T14:43:37;9.20;99.90
1686;DHT22;840;47.980;7.830;2024-01-27T14:46:04;9.10;99.90
1686;DHT22;840;47.980;7.830;2024-01-27T14:48:31;9.00;99.90
1686;DHT22;840;47.980;7.830;2024-01-27T14:50:58;8.90;99.90
1686;DHT22;840;47.980;7.830;2024-01-27T14:53:25;8.90;99.90
1686;DHT22;840;47.980;7.830;2024-01-27T14:55:53;8.90;99.90
1686;DHT22;840;47.980;7.830;2024-01-27T14:58:21;8.80;99.90
1686;DHT22;840;47.980;7.830;2024-01-27T15:00:48;8.70;99.90
1686;DHT22;840;47.980;7.830;2024-01-27T15:03:18;8.70;99.90
1686;DHT22;840;47.980;7.830;2024-01-27T15:05:44;8.70;99.90
1686;DHT22;840;47.980;7.830;2024-01-27T15:08:11;8.70;99.90
1686;DHT22;840;47.980;7.830;2024-01-27T15:10:38;8.70;99.90
1686;DHT22;840;47.980;7.830;2024-01-27T15:13:05;8.70;99.90
1686;DHT22;840;47.980;7.830;2024-01-27T15:15:33;8.70;99.90
1686;DHT22;840;47.980;7.830;2024-01-27T15:18:00;8.80;99.90
1686;DHT22;840;47.980;7.830;2024-01-27T15:20:27;8.80;99.90
1686;DHT22;840;47.980;7.830;2024-01-27T15:22:53;8.80;99.90
1686;DHT22;840;47.980;7.830;2024-01-27T15:25:20;8.80;99.90
1686;DHT22;840;47.980;7.830;2024-01-27T15:27:47;8.80;99.90
1686;DHT22;840;47.980;7.830;2024-01-27T15:30:16;8.80;99.90
1686;DHT22;840;47.980;7.830;2024-01-27T15:32:45;8.80;99.90
1686;DHT22;840;47.980;7.830;2024-01-27T15:35:13;8.70;99.90
1686;DHT22;840;47.980;7.830;2024-01-27T15:37:41;8.70;99.90
1686;DHT22;840;47.980;7.830;2024-01-27T15:40:08;8.60;99.90
1686;DHT22;840;47.980;7.830;2024-01-27T15:42:35;8.50;99.90
1686;DHT22;840;47.980;7.830;2024-01-27T15:45:03;8.50;99.90
1686;DHT22;840;47.980;7.830;2024-01-27T15:47:30;8.40;99.90
1686;DHT22;840;47.980;7.830;2024-01-27T15:49:58;8.30;99.90
1686;DHT22;840;47.980;7.830;2024-01-27T15:52:29;8.30;99.90
1686;DHT22;840;47.980;7.830;2024-01-27T15:54:56;8.30;99.90
1686;DHT22;840;47.980;7.830;2024-01-27T15:57:22;8.30;99.90
1686;DHT22;840;47.980;7.830;2024-01-27T15:59:50;8.20;99.90
1686;DHT22;840;47.980;7.830;2024-01-27T16:02:17;8.10;99.90
1686;DHT22;840;47.980;7.830;2024-01-27T16:04:44;8.10;99.90
1686;DHT22;840;47.980;7.830;2024-01-27T16:07:12;8.00;99.90
1686;DHT22;840;47.980;7.830;2024-01-27T16:09:39;8.00;99.90
1686;DHT22;840;47.980;7.830;2024-01-27T16:12:06;8.10;99.90
1686;DHT22;840;47.980;7.830;2024-01-27T16:14:33;8.10;99.90
1686;DHT22;840;47.980;7.830;2024-01-27T16:17:00;8.00;99.90
1686;DHT22;840;47.980;7.830;2024-01-27T16:19:27;7.90;99.90
1686;DHT22;840;47.980;7.830;2024-01-27T16:21:54;7.90;99.90
1686;DHT22;840;47.980;7.830;2024-01-27T16:24:22;7.90;99.90
1686;DHT22;840;47.980;7.830;2024-01-27T16:26:49;7.90;99.90
1686;DHT22;840;47.980;7.830;2024-01-27T16:29:16;7.90;99.90
1686;DHT22;840;47.980;7.830;2024-01-27T16:31:43;7.90;99.90
1686;DHT22;840;47.980;7.830;2024-01-27T16:34:09;7.90;99.90